Time;durP1;ratioP1;P1;durP2;ratioP2;P2;SDS_P1;SDS_P2;PMS_P1;PMS_P2;Temp;Humidity;BMP_temperature;BMP_pressure;BME280_temperature;BME280_humidity;BME280_pressure;Samples;Min_cycle;Max_cycle;Signal;HPM_P1;HPM_P2
2020/12/25 00:02:08;;;;;;;1.53;0.90;;;4.20;99.90;;;;;;5077683;28;20181;-77
2020/12/25 00:04:35;;;;;;;1.43;1.33;;;4.20;99.90;;;;;;5076655;28;20302;-78
2020/12/25 00:07:01;;;;;;;1.50;1.30;;;4.20;99.90;;;;;;5077795;28;20276;-77
2020/12/25 00:09:27;;;;;;;2.10;1.40;;;4.20;99.90;;;;;;5079262;28;20753;-77
2020/12/25 00:11:52;;;;;;;1.97;1.53;;;4.20;99.90;;;;;;5077018;28;20205;-77
2020/12/25 00:14:18;;;;;;;1.30;1.03;;;4.20;99.90;;;;;;5077609;28;20225;-77
2020/12/25 00:16:44;;;;;;;2.43;1.97;;;4.20;99.90;;;;;;5076048;28;20202;-77
2020/12/25 00:19:10;;;;;;;1.10;1.00;;;4.20;99.90;;;;;;5078819;28;20189;-76
2020/12/25 00:21:37;;;;;;;2.30;1.10;;;4.20;99.90;;;;;;5077630;28;20181;-77
2020/12/25 00:24:06;;;;;;;2.50;1.50;;;4.20;99.90;;;;;;5076955;28;20192;-77
2020/12/25 00:26:33;;;;;;;1.13;0.80;;;4.10;99.90;;;;;;5078935;28;20189;-77
2020/12/25 00:29:02;;;;;;;1.40;1.20;;;4.10;99.90;;;;;;5076547;28;20217;-77
2020/12/25 00:31:30;;;;;;;1.40;1.30;;;4.00;99.90;;;;;;5076768;28;20188;-77
2020/12/25 00:34:02;;;;;;;1.63;1.20;;;4.00;99.90;;;;;;5075967;28;20224;-77
2020/12/25 00:36:33;;;;;;;0.70;0.70;;;4.00;99.90;;;;;;5076758;28;20209;-77
2020/12/25 00:39:00;;;;;;;3.10;1.90;;;4.00;99.90;;;;;;5077919;28;20560;-78
2020/12/25 00:41:26;;;;;;;1.13;1.03;;;4.00;99.90;;;;;;5077967;28;20177;-76
2020/12/25 00:43:53;;;;;;;1.30;1.20;;;3.90;99.90;;;;;;5074411;28;20869;-77
2020/12/25 00:46:18;;;;;;;0.87;0.87;;;3.90;99.90;;;;;;5076389;28;20737;-77
2020/12/25 00:48:44;;;;;;;2.03;1.13;;;3.90;99.90;;;;;;5075857;28;20185;-77
2020/12/25 00:51:18;;;;;;;0.60;0.60;;;3.90;99.90;;;;;;5077452;28;20193;-77
2020/12/25 00:53:44;;;;;;;0.80;0.80;;;3.90;99.90;;;;;;5078138;28;20195;-76
2020/12/25 00:56:11;;;;;;;0.93;0.70;;;3.80;99.90;;;;;;5079394;28;20299;-76
2020/12/25 00:58:38;;;;;;;0.70;0.67;;;3.90;99.90;;;;;;5076483;28;20197;-77
2020/12/25 01:01:05;;;;;;;0.73;0.73;;;3.80;99.90;;;;;;5078058;28;20293;-78
2020/12/25 01:03:33;;;;;;;0.83;0.77;;;3.80;99.90;;;;;;5076490;28;20189;-75
2020/12/25 01:05:58;;;;;;;2.30;1.00;;;3.80;99.90;;;;;;5077769;28;20307;-76
2020/12/25 01:08:25;;;;;;;4.17;1.20;;;3.80;99.90;;;;;;5076221;28;20236;-77
2020/12/25 01:10:51;;;;;;;1.00;0.60;;;3.70;99.90;;;;;;5076677;28;20318;-77
2020/12/25 01:13:17;;;;;;;0.40;0.40;;;3.80;99.90;;;;;;5076243;28;20193;-77
2020/12/25 01:15:42;;;;;;;0.77;0.60;;;3.80;99.90;;;;;;5076402;28;20225;-77
2020/12/25 01:18:09;;;;;;;1.73;1.20;;;3.80;99.90;;;;;;5077633;28;20215;-77
2020/12/25 01:20:35;;;;;;;1.77;1.17;;;3.70;99.90;;;;;;5077220;28;20566;-77
2020/12/25 01:23:02;;;;;;;0.53;0.53;;;3.80;99.90;;;;;;5091662;28;20192;-77
2020/12/25 01:25:28;;;;;;;0.73;0.73;;;3.80;99.90;;;;;;5076395;28;20635;-77
2020/12/25 01:27:53;;;;;;;0.80;0.70;;;3.70;99.90;;;;;;5076238;28;20206;-76
2020/12/25 01:30:19;;;;;;;0.80;0.80;;;3.70;99.90;;;;;;5075200;28;20185;-77
2020/12/25 01:32:44;;;;;;;0.73;0.70;;;3.70;99.90;;;;;;5075926;28;20225;-77
2020/12/25 01:35:10;;;;;;;1.27;0.80;;;3.70;99.90;;;;;;5076769;28;21015;-76
2020/12/25 01:37:36;;;;;;;0.53;0.40;;;3.70;99.90;;;;;;5079026;28;20843;-76
2020/12/25 01:40:02;;;;;;;1.00;0.60;;;3.60;99.90;;;;;;5076638;28;20186;-77
2020/12/25 01:42:28;;;;;;;1.33;0.67;;;3.60;99.90;;;;;;5075651;28;20188;-77
2020/12/25 01:44:53;;;;;;;0.70;0.50;;;3.60;99.90;;;;;;5077923;28;20205;-77
2020/12/25 01:47:20;;;;;;;0.30;0.30;;;3.60;99.90;;;;;;5076568;28;20524;-76
2020/12/25 01:49:47;;;;;;;0.67;0.67;;;3.70;99.90;;;;;;5073826;28;20695;-75
2020/12/25 01:52:13;;;;;;;0.77;0.47;;;3.70;99.90;;;;;;5077282;28;20173;-77
2020/12/25 01:54:43;;;;;;;3.70;1.00;;;3.60;99.90;;;;;;5078931;28;20703;-77
2020/12/25 01:57:11;;;;;;;0.40;0.40;;;3.60;99.90;;;;;;5076422;28;20610;-77
2020/12/25 01:59:38;;;;;;;0.40;0.40;;;3.50;99.90;;;;;;5077173;28;20185;-77
2020/12/25 02:02:04;;;;;;;1.70;0.50;;;3.60;99.90;;;;;;5075121;28;20639;-77
2020/12/25 02:04:29;;;;;;;1.17;0.30;;;3.60;99.90;;;;;;5076691;28;20220;-77
2020/12/25 02:06:55;;;;;;;0.40;0.40;;;3.50;99.90;;;;;;5073342;28;20188;-77
2020/12/25 02:09:20;;;;;;;0.30;0.30;;;3.50;99.90;;;;;;5077032;28;20181;-76
2020/12/25 02:11:47;;;;;;;1.63;0.80;;;3.40;99.90;;;;;;5076792;28;20193;-76
2020/12/25 02:14:13;;;;;;;0.47;0.40;;;3.40;99.90;;;;;;5094497;28;20689;-76
2020/12/25 02:16:38;;;;;;;1.43;0.50;;;3.40;99.90;;;;;;5078557;28;20244;-77
2020/12/25 02:19:04;;;;;;;0.70;0.43;;;3.50;99.90;;;;;;5077451;28;20851;-76
2020/12/25 02:21:29;;;;;;;0.93;0.40;;;3.40;99.90;;;;;;5077379;28;20216;-77
2020/12/25 02:23:55;;;;;;;0.73;0.73;;;3.40;99.90;;;;;;5083007;28;20169;-77
2020/12/25 02:26:20;;;;;;;0.50;0.40;;;3.40;99.90;;;;;;5081737;28;20231;-77
2020/12/25 02:28:46;;;;;;;1.27;0.70;;;3.40;99.90;;;;;;5083225;28;20184;-77
2020/12/25 02:31:12;;;;;;;0.43;0.43;;;3.30;99.90;;;;;;5079452;28;20181;-76
2020/12/25 02:33:37;;;;;;;0.60;0.60;;;3.40;99.90;;;;;;5081966;28;20196;-77
2020/12/25 02:36:03;;;;;;;0.57;0.47;;;3.40;99.90;;;;;;5080130;28;20208;-77
2020/12/25 02:38:28;;;;;;;0.70;0.70;;;3.40;99.90;;;;;;5082407;28;20176;-76
2020/12/25 02:40:54;;;;;;;1.03;0.60;;;3.40;99.90;;;;;;5079799;28;20197;-77
2020/12/25 02:43:19;;;;;;;0.20;0.20;;;3.40;99.90;;;;;;5080708;28;20193;-77
2020/12/25 02:45:45;;;;;;;0.33;0.33;;;3.40;99.90;;;;;;5081379;28;20257;-77
2020/12/25 02:48:11;;;;;;;0.37;0.37;;;3.40;99.90;;;;;;5080308;28;20196;-77
2020/12/25 02:50:36;;;;;;;0.30;0.30;;;3.30;99.90;;;;;;5081311;28;20251;-77
2020/12/25 02:53:02;;;;;;;0.40;0.40;;;3.40;99.90;;;;;;5079335;28;20193;-76
2020/12/25 02:55:27;;;;;;;1.40;0.93;;;3.40;99.90;;;;;;5082112;28;20217;-77
2020/12/25 02:57:53;;;;;;;0.73;0.47;;;3.30;99.90;;;;;;5082423;28;20272;-76
2020/12/25 03:00:18;;;;;;;0.50;0.50;;;3.40;99.90;;;;;;5081196;28;20725;-77
2020/12/25 03:02:44;;;;;;;0.90;0.70;;;3.30;99.90;;;;;;5079517;28;21226;-77
2020/12/25 03:05:09;;;;;;;1.60;0.87;;;3.40;99.90;;;;;;5080234;28;20607;-77
2020/12/25 03:07:35;;;;;;;1.03;0.90;;;3.40;99.90;;;;;;5079248;28;20189;-77
2020/12/25 03:10:01;;;;;;;0.97;0.90;;;3.40;99.90;;;;;;5078967;28;20204;-77
2020/12/25 03:12:26;;;;;;;1.03;0.70;;;3.30;99.90;;;;;;5079487;28;20295;-77
2020/12/25 03:14:52;;;;;;;0.93;0.63;;;3.30;99.90;;;;;;5081214;28;20246;-77
2020/12/25 03:17:17;;;;;;;4.00;1.13;;;3.30;99.90;;;;;;5077809;28;20219;-77
2020/12/25 03:19:43;;;;;;;0.40;0.40;;;3.30;99.90;;;;;;5079935;28;20200;-76
2020/12/25 03:22:08;;;;;;;1.07;0.80;;;3.40;99.90;;;;;;5076465;28;20188;-77
2020/12/25 03:24:34;;;;;;;0.83;0.50;;;3.30;99.90;;;;;;5077903;28;20225;-76
2020/12/25 03:27:00;;;;;;;0.40;0.40;;;3.30;99.90;;;;;;5082064;28;20189;-75
2020/12/25 03:29:25;;;;;;;2.23;1.30;;;3.30;99.90;;;;;;5080800;28;20581;-76
2020/12/25 03:31:51;;;;;;;0.60;0.50;;;3.30;99.90;;;;;;5081617;28;20574;-76
2020/12/25 03:34:16;;;;;;;0.63;0.63;;;3.30;99.90;;;;;;5079098;28;20223;-77
2020/12/25 03:36:43;;;;;;;0.50;0.50;;;3.30;99.90;;;;;;5078274;28;20312;-77
2020/12/25 03:39:09;;;;;;;0.63;0.63;;;3.30;99.90;;;;;;5079842;28;20618;-76
2020/12/25 03:41:34;;;;;;;1.03;0.70;;;3.30;99.90;;;;;;5081367;28;20235;-77
2020/12/25 03:44:00;;;;;;;0.63;0.63;;;3.40;99.90;;;;;;5078988;28;20189;-76
2020/12/25 03:46:32;;;;;;;2.03;0.47;;;3.40;99.90;;;;;;5079548;28;20220;-77
2020/12/25 03:48:57;;;;;;;1.80;0.50;;;3.30;99.90;;;;;;5078647;28;20196;-77
2020/12/25 03:51:23;;;;;;;0.80;0.50;;;3.30;99.90;;;;;;5079999;28;20193;-77
2020/12/25 03:53:48;;;;;;;0.60;0.60;;;3.30;99.90;;;;;;5079405;28;20193;-77
2020/12/25 03:56:15;;;;;;;0.30;0.30;;;3.30;99.90;;;;;;5079398;28;20213;-77
2020/12/25 03:58:41;;;;;;;0.47;0.37;;;3.30;99.90;;;;;;5079347;28;20185;-76
2020/12/25 04:01:07;;;;;;;0.50;0.50;;;3.40;99.90;;;;;;5077392;28;20188;-77
2020/12/25 04:03:32;;;;;;;0.50;0.50;;;3.30;99.90;;;;;;5077907;28;20181;-77
2020/12/25 04:05:58;;;;;;;0.60;0.43;;;3.30;99.90;;;;;;5078182;28;20215;-77
2020/12/25 04:08:23;;;;;;;0.87;0.30;;;3.30;99.90;;;;;;5077419;28;20247;-77
2020/12/25 04:10:49;;;;;;;1.30;0.70;;;3.40;99.90;;;;;;5078235;28;20226;-77
2020/12/25 04:13:15;;;;;;;0.40;0.40;;;3.30;99.90;;;;;;5078440;28;20197;-77
2020/12/25 04:15:40;;;;;;;0.40;0.40;;;3.30;99.90;;;;;;5078188;28;20229;-77
2020/12/25 04:18:06;;;;;;;0.37;0.37;;;3.40;99.90;;;;;;5079594;28;20190;-77
2020/12/25 04:20:31;;;;;;;1.63;1.37;;;3.30;99.90;;;;;;5077992;28;20268;-77
2020/12/25 04:22:57;;;;;;;0.30;0.30;;;3.30;99.90;;;;;;5078387;28;20185;-77
2020/12/25 04:25:22;;;;;;;0.40;0.40;;;3.40;99.90;;;;;;5076334;28;20209;-77
2020/12/25 04:27:48;;;;;;;0.50;0.40;;;3.40;99.90;;;;;;5078099;28;20702;-77
2020/12/25 04:30:14;;;;;;;0.70;0.60;;;3.30;99.90;;;;;;5076703;28;20618;-77
2020/12/25 04:32:39;;;;;;;0.50;0.50;;;3.40;99.90;;;;;;5079358;28;20215;-77
2020/12/25 04:35:05;;;;;;;0.50;0.50;;;3.40;99.90;;;;;;5076144;28;20220;-77
2020/12/25 04:37:31;;;;;;;0.40;0.40;;;3.30;99.90;;;;;;5077509;28;20268;-77
2020/12/25 04:39:57;;;;;;;0.80;0.63;;;3.30;99.90;;;;;;5075914;28;20203;-77
2020/12/25 04:42:26;;;;;;;0.30;0.30;;;3.30;99.90;;;;;;5077228;28;20231;-77
2020/12/25 04:44:52;;;;;;;1.03;0.60;;;3.40;99.90;;;;;;5079207;28;20209;-77
2020/12/25 04:47:17;;;;;;;1.33;0.73;;;3.30;99.90;;;;;;5079085;28;20192;-77
2020/12/25 04:49:43;;;;;;;1.17;0.60;;;3.30;99.90;;;;;;5077626;28;20181;-77
2020/12/25 04:52:09;;;;;;;0.43;0.43;;;3.30;99.90;;;;;;5077553;28;20190;-77
2020/12/25 04:54:34;;;;;;;1.50;1.33;;;3.30;99.90;;;;;;5077288;28;20232;-77
2020/12/25 04:57:00;;;;;;;1.50;0.77;;;3.30;99.90;;;;;;5078670;28;20209;-77
2020/12/25 04:59:30;;;;;;;0.87;0.57;;;3.30;99.90;;;;;;5076881;28;20188;-77
2020/12/25 05:01:56;;;;;;;1.63;1.13;;;3.30;99.90;;;;;;5078603;28;20253;-77
2020/12/25 05:04:23;;;;;;;0.87;0.80;;;3.30;99.90;;;;;;5076458;28;20232;-77
2020/12/25 05:06:51;;;;;;;0.53;0.50;;;3.30;99.90;;;;;;5077746;28;20186;-77
2020/12/25 05:09:24;;;;;;;3.07;0.97;;;3.20;99.90;;;;;;5077623;28;20250;-77
2020/12/25 05:11:52;;;;;;;0.60;0.60;;;3.30;99.90;;;;;;5078141;28;20215;-77
2020/12/25 05:14:18;;;;;;;0.87;0.60;;;3.20;99.90;;;;;;5079264;28;20299;-77
2020/12/25 05:16:45;;;;;;;0.37;0.37;;;3.20;99.90;;;;;;5079233;28;20272;-77
2020/12/25 05:19:12;;;;;;;0.50;0.50;;;3.20;99.90;;;;;;5077349;28;20181;-77
2020/12/25 05:21:39;;;;;;;1.30;1.07;;;3.20;99.90;;;;;;5077656;28;20246;-77
2020/12/25 05:24:07;;;;;;;0.70;0.70;;;3.20;99.90;;;;;;5077516;28;20253;-77
2020/12/25 05:26:33;;;;;;;0.80;0.80;;;3.30;99.90;;;;;;5076178;28;20177;-77
2020/12/25 05:29:00;;;;;;;1.13;1.03;;;3.30;99.90;;;;;;5078725;28;20188;-77
2020/12/25 05:31:26;;;;;;;0.60;0.60;;;3.20;99.90;;;;;;5064328;28;20673;-77
2020/12/25 05:33:55;;;;;;;0.50;0.50;;;3.30;99.90;;;;;;5072913;28;20185;-77
2020/12/25 05:36:27;;;;;;;0.97;0.60;;;3.20;99.90;;;;;;5064404;28;20210;-77
2020/12/25 05:38:53;;;;;;;1.93;1.30;;;3.20;99.90;;;;;;5076957;28;20181;-77
2020/12/25 05:41:19;;;;;;;1.10;0.90;;;3.20;99.90;;;;;;5077684;28;20218;-77
2020/12/25 05:43:49;;;;;;;1.20;0.77;;;3.20;99.90;;;;;;5072016;28;20814;-77
2020/12/25 05:46:15;;;;;;;0.50;0.50;;;3.10;99.90;;;;;;5081934;28;20212;-77
2020/12/25 05:48:41;;;;;;;0.67;0.67;;;3.20;99.90;;;;;;5072882;28;20685;-77
2020/12/25 05:51:10;;;;;;;0.47;0.47;;;3.10;99.90;;;;;;5076865;28;20209;-77
2020/12/25 05:53:36;;;;;;;2.57;1.43;;;3.10;99.90;;;;;;5086298;28;20223;-77
2020/12/25 05:56:02;;;;;;;1.60;0.77;;;3.10;99.90;;;;;;5075629;28;20326;-77
2020/12/25 05:58:30;;;;;;;1.03;0.70;;;3.20;99.90;;;;;;5074755;28;20185;-77
2020/12/25 06:00:56;;;;;;;0.73;0.73;;;3.20;99.90;;;;;;5082614;28;20253;-77
2020/12/25 06:03:23;;;;;;;0.63;0.63;;;3.10;99.90;;;;;;5073465;28;20697;-77
2020/12/25 06:05:50;;;;;;;1.17;0.70;;;3.10;99.90;;;;;;5076751;28;20236;-77
2020/12/25 06:08:26;;;;;;;1.40;0.83;;;3.00;99.90;;;;;;5079827;28;20292;-77
2020/12/25 06:11:01;;;;;;;0.80;0.57;;;3.10;99.90;;;;;;5078940;28;20211;-77
2020/12/25 06:13:42;;;;;;;0.40;0.30;;;3.10;99.90;;;;;;5079765;28;20258;-77
2020/12/25 06:16:14;;;;;;;0.40;0.40;;;3.10;99.90;;;;;;5078781;28;20269;-77
2020/12/25 06:18:51;;;;;;;1.20;0.67;;;3.10;99.90;;;;;;5078411;28;20191;-77
2020/12/25 06:21:23;;;;;;;0.93;0.80;;;3.10;99.90;;;;;;5080024;28;20172;-77
2020/12/25 06:23:49;;;;;;;0.57;0.47;;;3.10;99.90;;;;;;5079522;28;20512;-76
2020/12/25 06:26:19;;;;;;;0.70;0.70;;;3.10;99.90;;;;;;5080381;28;20217;-77
2020/12/25 06:28:44;;;;;;;1.47;0.60;;;3.10;99.90;;;;;;5081272;28;20193;-75
2020/12/25 06:31:34;;;;;;;0.83;0.70;;;3.00;99.90;;;;;;5082770;28;20189;-76
2020/12/25 06:34:04;;;;;;;0.73;0.73;;;2.90;99.90;;;;;;5079874;28;20193;-75
2020/12/25 06:36:31;;;;;;;0.60;0.60;;;3.00;99.90;;;;;;5082002;28;20215;-75
2020/12/25 06:39:04;;;;;;;2.50;1.00;;;2.90;99.90;;;;;;5081535;28;20241;-77
2020/12/25 06:41:29;;;;;;;0.60;0.60;;;2.90;99.90;;;;;;5082263;28;20177;-76
2020/12/25 06:43:56;;;;;;;0.60;0.60;;;3.00;99.90;;;;;;5082132;28;20558;-77
2020/12/25 06:46:29;;;;;;;1.53;1.43;;;3.00;99.90;;;;;;5081378;28;21148;-75
2020/12/25 06:48:59;;;;;;;1.77;1.20;;;3.10;99.90;;;;;;5081067;28;20200;-76
2020/12/25 06:51:27;;;;;;;0.97;0.60;;;3.10;99.90;;;;;;5084331;28;20200;-78
2020/12/25 06:53:56;;;;;;;1.57;1.40;;;3.10;99.90;;;;;;5080982;28;20217;-77
2020/12/25 06:56:22;;;;;;;1.50;1.17;;;3.00;99.90;;;;;;5079876;28;20297;-76
2020/12/25 06:58:54;;;;;;;0.70;0.70;;;3.00;99.90;;;;;;5083583;28;20177;-76
2020/12/25 07:01:39;;;;;;;0.87;0.70;;;3.00;99.90;;;;;;5080654;28;20188;-76
2020/12/25 07:04:05;;;;;;;2.53;1.53;;;3.10;99.90;;;;;;5079513;28;20188;-77
2020/12/25 07:06:31;;;;;;;1.07;0.70;;;3.00;99.90;;;;;;5081720;28;20181;-76
2020/12/25 07:09:10;;;;;;;1.03;0.97;;;3.10;99.90;;;;;;5078579;28;21083;-74
2020/12/25 07:11:36;;;;;;;0.57;0.57;;;3.00;99.90;;;;;;5078718;28;20203;-76
2020/12/25 07:14:02;;;;;;;0.87;0.87;;;3.00;99.90;;;;;;5081644;28;20252;-76
2020/12/25 07:16:27;;;;;;;0.67;0.63;;;3.00;99.90;;;;;;5082005;28;20645;-74
2020/12/25 07:18:53;;;;;;;1.80;1.37;;;3.00;99.90;;;;;;5075153;28;20187;-74
2020/12/25 07:21:18;;;;;;;0.83;0.73;;;2.90;99.90;;;;;;5075509;28;20632;-74
2020/12/25 07:23:45;;;;;;;0.60;0.60;;;2.90;99.90;;;;;;5074685;28;20585;-74
2020/12/25 07:26:12;;;;;;;0.47;0.47;;;2.80;99.90;;;;;;5073303;28;20205;-74
2020/12/25 07:28:38;;;;;;;0.93;0.90;;;2.90;99.90;;;;;;5073244;28;20217;-74
2020/12/25 07:31:05;;;;;;;0.97;0.80;;;2.90;99.90;;;;;;5075816;28;20590;-73
2020/12/25 07:33:30;;;;;;;0.70;0.67;;;2.90;99.90;;;;;;5074050;28;20721;-74
2020/12/25 07:35:57;;;;;;;0.80;0.80;;;2.90;99.90;;;;;;5075749;28;20217;-74
2020/12/25 07:38:25;;;;;;;0.67;0.67;;;2.90;99.90;;;;;;5073869;28;20239;-76
2020/12/25 07:40:51;;;;;;;0.70;0.70;;;2.80;99.90;;;;;;5077707;28;20200;-76
2020/12/25 07:43:16;;;;;;;1.80;0.70;;;2.80;99.90;;;;;;5079161;28;20185;-78
2020/12/25 07:45:42;;;;;;;0.97;0.90;;;2.80;99.90;;;;;;5079314;28;20358;-74
2020/12/25 07:48:08;;;;;;;1.27;1.17;;;2.80;99.90;;;;;;5080526;28;20196;-77
2020/12/25 07:50:38;;;;;;;1.70;0.80;;;2.80;99.90;;;;;;5080560;28;20188;-75
2020/12/25 07:53:09;;;;;;;0.67;0.63;;;2.70;99.90;;;;;;5084736;28;20660;-76
2020/12/25 07:55:35;;;;;;;0.63;0.63;;;2.70;99.90;;;;;;5078739;28;20217;-76
2020/12/25 07:58:02;;;;;;;0.73;0.70;;;2.70;99.90;;;;;;5075668;28;20182;-77
2020/12/25 08:00:27;;;;;;;0.70;0.70;;;2.80;99.90;;;;;;5079165;28;20188;-76
2020/12/25 08:02:54;;;;;;;0.80;0.80;;;2.70;99.90;;;;;;5079207;28;20181;-75
2020/12/25 08:05:20;;;;;;;0.67;0.57;;;2.80;99.90;;;;;;5078200;28;20266;-76
2020/12/25 08:07:46;;;;;;;0.87;0.87;;;2.80;99.90;;;;;;5079140;28;20663;-76
2020/12/25 08:10:18;;;;;;;1.93;1.20;;;2.80;99.90;;;;;;5081809;28;20196;-76
2020/12/25 08:12:48;;;;;;;0.67;0.67;;;2.80;99.90;;;;;;5079016;28;20241;-75
2020/12/25 08:15:14;;;;;;;0.50;0.50;;;2.80;99.90;;;;;;5081050;28;20216;-75
2020/12/25 08:17:40;;;;;;;0.80;0.70;;;2.90;99.90;;;;;;5078069;28;20877;-77
2020/12/25 08:20:05;;;;;;;0.40;0.40;;;2.80;99.90;;;;;;5074076;28;20188;-77
2020/12/25 08:22:31;;;;;;;0.70;0.70;;;2.70;99.90;;;;;;5075885;28;20184;-77
2020/12/25 08:24:58;;;;;;;0.40;0.40;;;2.80;99.90;;;;;;5073107;28;20238;-77
2020/12/25 08:27:24;;;;;;;1.10;0.90;;;2.80;99.90;;;;;;5078491;28;20181;-77
2020/12/25 08:29:51;;;;;;;1.27;0.60;;;2.80;99.90;;;;;;5079318;28;20579;-77
2020/12/25 08:32:17;;;;;;;0.57;0.57;;;2.80;99.90;;;;;;5076712;28;20185;-78
2020/12/25 08:34:42;;;;;;;0.87;0.43;;;2.90;99.90;;;;;;5076897;28;20509;-75
2020/12/25 08:37:09;;;;;;;1.87;0.80;;;2.90;99.90;;;;;;5078795;28;20678;-77
2020/12/25 08:39:35;;;;;;;0.97;0.87;;;2.90;99.90;;;;;;5084376;28;20173;-77
2020/12/25 08:42:01;;;;;;;1.97;1.47;;;3.00;99.90;;;;;;5089627;28;20169;-78
2020/12/25 08:44:27;;;;;;;0.73;0.73;;;3.00;99.90;;;;;;5081967;28;20749;-76
2020/12/25 08:47:07;;;;;;;0.50;0.50;;;3.10;99.90;;;;;;5081218;28;20334;-77
2020/12/25 08:49:33;;;;;;;0.73;0.73;;;3.20;99.90;;;;;;5077425;28;20185;-76
2020/12/25 08:51:58;;;;;;;1.30;1.20;;;3.10;99.90;;;;;;5081216;28;20185;-77
2020/12/25 08:54:28;;;;;;;1.50;1.00;;;3.10;99.90;;;;;;5078574;28;20232;-76
2020/12/25 08:56:55;;;;;;;1.10;0.77;;;3.10;99.90;;;;;;5074486;28;20257;-77
2020/12/25 08:59:21;;;;;;;0.97;0.90;;;3.10;99.90;;;;;;5074028;28;20184;-77
2020/12/25 09:01:50;;;;;;;1.77;0.87;;;3.20;99.90;;;;;;5079737;28;20550;-78
2020/12/25 09:04:22;;;;;;;0.70;0.70;;;3.20;99.90;;;;;;5081785;28;20220;-77
2020/12/25 09:06:51;;;;;;;1.10;0.77;;;3.30;99.90;;;;;;5077391;28;20948;-76
2020/12/25 09:09:17;;;;;;;0.60;0.60;;;3.20;99.90;;;;;;5078641;28;20185;-76
2020/12/25 09:11:44;;;;;;;0.53;0.53;;;3.20;99.90;;;;;;5078813;28;20264;-76
2020/12/25 09:14:09;;;;;;;0.60;0.60;;;3.20;99.90;;;;;;5077903;28;20208;-77
2020/12/25 09:16:35;;;;;;;0.87;0.80;;;3.20;99.90;;;;;;5076729;28;20693;-78
2020/12/25 09:19:01;;;;;;;1.77;1.13;;;3.20;99.90;;;;;;5080056;28;20222;-77
2020/12/25 09:21:29;;;;;;;0.70;0.70;;;3.20;99.90;;;;;;5079313;28;20650;-78
2020/12/25 09:23:56;;;;;;;3.40;1.93;;;3.20;99.90;;;;;;5083780;28;20176;-76
2020/12/25 09:26:22;;;;;;;1.80;1.00;;;3.30;99.90;;;;;;5088449;28;20185;-76
2020/12/25 09:28:47;;;;;;;3.83;1.27;;;3.20;99.90;;;;;;5084679;28;20526;-78
2020/12/25 09:31:13;;;;;;;0.90;0.90;;;3.20;99.90;;;;;;5083973;28;20189;-78
2020/12/25 09:33:39;;;;;;;0.90;0.80;;;3.20;99.90;;;;;;5084907;28;20938;-76
2020/12/25 09:36:07;;;;;;;0.93;0.70;;;3.20;99.90;;;;;;5082228;28;20701;-77
2020/12/25 09:38:33;;;;;;;1.70;1.10;;;3.30;99.90;;;;;;5082461;28;20280;-77
2020/12/25 09:41:00;;;;;;;1.70;0.90;;;3.30;99.90;;;;;;5084105;28;20182;-77
2020/12/25 09:43:28;;;;;;;1.00;1.00;;;3.30;99.90;;;;;;5086265;28;20197;-78
2020/12/25 09:45:53;;;;;;;0.60;0.60;;;3.20;99.90;;;;;;5088184;28;20243;-77
2020/12/25 09:48:19;;;;;;;0.53;0.50;;;3.10;99.90;;;;;;5084148;28;20189;-77
2020/12/25 09:50:45;;;;;;;1.33;0.80;;;3.20;99.90;;;;;;5082469;28;20177;-79
2020/12/25 09:53:10;;;;;;;0.77;0.73;;;3.10;99.90;;;;;;5086752;28;20196;-77
2020/12/25 09:55:38;;;;;;;0.73;0.60;;;3.10;99.90;;;;;;5084164;28;20217;-76
2020/12/25 09:58:04;;;;;;;1.17;0.60;;;3.10;99.90;;;;;;5084428;28;20200;-77
2020/12/25 10:00:30;;;;;;;11.23;1.37;;;3.10;99.90;;;;;;5084162;28;20288;-77
2020/12/25 10:02:56;;;;;;;0.57;0.57;;;3.10;99.90;;;;;;5089185;28;20979;-77
2020/12/25 10:05:21;;;;;;;0.73;0.73;;;3.00;99.90;;;;;;5084819;28;20213;-77
2020/12/25 10:07:48;;;;;;;0.67;0.67;;;3.10;99.90;;;;;;5086810;28;20275;-77
2020/12/25 10:10:14;;;;;;;0.50;0.50;;;3.10;99.90;;;;;;5085130;28;20545;-77
2020/12/25 10:12:40;;;;;;;1.13;1.03;;;3.10;99.90;;;;;;5080862;28;20246;-78
2020/12/25 10:15:05;;;;;;;1.40;1.00;;;3.20;99.90;;;;;;5077403;28;20228;-77
2020/12/25 10:17:31;;;;;;;1.30;0.90;;;3.10;99.90;;;;;;5081428;28;20227;-77
2020/12/25 10:19:56;;;;;;;24.37;1.10;;;3.20;99.90;;;;;;5091306;28;20185;-77
2020/12/25 10:22:22;;;;;;;0.50;0.50;;;3.10;99.90;;;;;;5085404;28;20189;-77
2020/12/25 10:24:48;;;;;;;0.50;0.50;;;3.20;99.90;;;;;;5086837;28;20205;-78
2020/12/25 10:27:14;;;;;;;0.90;0.90;;;3.30;99.90;;;;;;5085754;28;20204;-77
2020/12/25 10:29:39;;;;;;;0.70;0.67;;;3.30;99.90;;;;;;5081985;28;20193;-76
2020/12/25 10:32:05;;;;;;;4.97;1.57;;;3.30;99.90;;;;;;5085520;28;20220;-77
2020/12/25 10:34:31;;;;;;;0.90;0.67;;;3.30;99.90;;;;;;5086204;28;20217;-77
2020/12/25 10:36:56;;;;;;;1.87;1.37;;;3.20;99.90;;;;;;5082732;28;20342;-77
2020/12/25 10:39:22;;;;;;;0.60;0.60;;;3.10;99.90;;;;;;5098894;28;20192;-77
2020/12/25 10:41:47;;;;;;;1.50;1.40;;;3.00;99.90;;;;;;5082657;28;20189;-77
2020/12/25 10:44:13;;;;;;;1.80;1.07;;;3.10;99.90;;;;;;5084079;28;20211;-77
2020/12/25 10:46:39;;;;;;;1.00;0.90;;;3.30;99.90;;;;;;5079522;28;20213;-77
2020/12/25 10:49:04;;;;;;;1.20;1.10;;;3.40;99.90;;;;;;5084294;28;20185;-77
2020/12/25 10:51:30;;;;;;;0.70;0.70;;;3.40;99.90;;;;;;5078594;28;20193;-77
2020/12/25 10:53:55;;;;;;;0.53;0.50;;;3.40;99.90;;;;;;5081127;28;20189;-77
2020/12/25 10:56:31;;;;;;;3.73;1.30;;;3.50;99.90;;;;;;5078176;28;20679;-76
2020/12/25 10:58:56;;;;;;;0.73;0.73;;;3.60;99.90;;;;;;5079150;28;20432;-77
2020/12/25 11:01:27;;;;;;;2.87;1.47;;;3.80;99.90;;;;;;5081158;28;20185;-78
2020/12/25 11:03:54;;;;;;;0.87;0.70;;;3.80;99.90;;;;;;5080081;28;20197;-77
2020/12/25 11:06:32;;;;;;;0.90;0.90;;;3.80;99.90;;;;;;5080733;28;20203;-76
2020/12/25 11:08:59;;;;;;;1.43;1.00;;;3.80;99.90;;;;;;5077647;28;20194;-77
2020/12/25 11:11:28;;;;;;;0.80;0.80;;;4.00;99.90;;;;;;5078572;28;20680;-77
2020/12/25 11:13:55;;;;;;;0.63;0.63;;;4.00;99.90;;;;;;5075956;28;20188;-77
2020/12/25 11:16:28;;;;;;;1.53;1.30;;;3.90;99.90;;;;;;5075660;28;20269;-76
2020/12/25 11:18:56;;;;;;;1.43;1.17;;;4.00;99.90;;;;;;5094022;28;20587;-77
2020/12/25 11:21:24;;;;;;;1.20;1.10;;;4.00;99.90;;;;;;5074226;28;20408;-78
2020/12/25 11:23:50;;;;;;;1.87;1.60;;;3.90;99.90;;;;;;5076257;28;20725;-76
2020/12/25 11:26:24;;;;;;;2.10;1.17;;;3.90;99.90;;;;;;5075948;28;20190;-76
2020/12/25 11:28:55;;;;;;;2.00;1.33;;;3.70;99.90;;;;;;5078053;28;20525;-77
2020/12/25 11:31:21;;;;;;;1.37;1.27;;;3.60;99.90;;;;;;5076332;28;20608;-77
2020/12/25 11:33:47;;;;;;;1.47;1.37;;;3.80;99.90;;;;;;5079019;28;20679;-76
2020/12/25 11:36:14;;;;;;;2.60;1.00;;;3.90;99.90;;;;;;5076207;28;20237;-78
2020/12/25 11:38:40;;;;;;;1.07;0.97;;;4.00;99.90;;;;;;5082607;28;20185;-77
2020/12/25 11:41:07;;;;;;;0.80;0.80;;;4.00;99.90;;;;;;5079063;28;20181;-77
2020/12/25 11:43:33;;;;;;;1.93;1.63;;;4.00;99.90;;;;;;5077995;28;20185;-74
2020/12/25 11:45:59;;;;;;;4.70;2.33;;;4.00;99.90;;;;;;5073537;28;20869;-76
2020/12/25 11:48:25;;;;;;;1.40;1.27;;;4.10;99.90;;;;;;5074528;28;20605;-77
2020/12/25 11:50:50;;;;;;;1.67;0.93;;;4.10;99.90;;;;;;5075850;28;20189;-78
2020/12/25 11:53:16;;;;;;;2.20;1.80;;;4.10;99.90;;;;;;5076015;28;20189;-77
2020/12/25 11:55:41;;;;;;;1.90;1.67;;;4.00;99.90;;;;;;5073137;28;20713;-77
2020/12/25 11:58:07;;;;;;;2.50;1.77;;;4.00;99.90;;;;;;5077697;28;20666;-77
2020/12/25 12:00:33;;;;;;;1.00;0.90;;;4.10;99.90;;;;;;5078299;28;20272;-77
2020/12/25 12:02:58;;;;;;;1.00;0.80;;;4.00;99.90;;;;;;5077389;28;20189;-77
2020/12/25 12:05:24;;;;;;;1.83;1.43;;;3.90;99.90;;;;;;5078559;28;20204;-77
2020/12/25 12:07:49;;;;;;;0.90;0.80;;;3.80;99.90;;;;;;5077707;28;20263;-77
2020/12/25 12:10:15;;;;;;;1.10;0.90;;;3.80;99.90;;;;;;5077507;28;21252;-77
2020/12/25 12:12:41;;;;;;;3.10;0.93;;;3.90;99.90;;;;;;5077389;28;20736;-77
2020/12/25 12:15:06;;;;;;;4.67;1.73;;;3.70;99.90;;;;;;5076622;28;20582;-77
2020/12/25 12:17:32;;;;;;;3.00;1.47;;;3.70;99.90;;;;;;5080156;28;20185;-77
2020/12/25 12:19:57;;;;;;;2.30;1.50;;;3.70;99.90;;;;;;5077037;28;20184;-77
2020/12/25 12:22:23;;;;;;;0.80;0.57;;;3.70;99.90;;;;;;5075563;28;20264;-77
2020/12/25 12:24:48;;;;;;;1.97;1.23;;;3.60;99.90;;;;;;5076801;28;20240;-77
2020/12/25 12:27:14;;;;;;;1.23;1.00;;;3.70;99.90;;;;;;5076514;28;20196;-77
2020/12/25 12:29:40;;;;;;;2.03;1.07;;;3.70;99.90;;;;;;5074528;28;20704;-77
2020/12/25 12:32:05;;;;;;;12.27;6.87;;;3.70;99.90;;;;;;5075131;28;20201;-77
2020/12/25 12:34:31;;;;;;;2.37;1.30;;;3.70;99.90;;;;;;5077721;28;21108;-77
2020/12/25 12:36:57;;;;;;;0.93;0.87;;;3.80;99.90;;;;;;5075667;28;20705;-76
2020/12/25 12:39:22;;;;;;;5.30;2.00;;;3.70;99.90;;;;;;5077717;28;20189;-77
2020/12/25 12:41:50;;;;;;;8.37;4.90;;;3.80;99.90;;;;;;5079052;28;20265;-77
2020/12/25 12:44:16;;;;;;;9.03;5.13;;;3.80;99.90;;;;;;5076461;28;20232;-77
2020/12/25 12:46:41;;;;;;;10.30;5.13;;;3.70;99.90;;;;;;5075859;28;20654;-76
2020/12/25 12:49:07;;;;;;;7.50;3.47;;;3.70;99.90;;;;;;5077755;28;20188;-76
2020/12/25 12:51:33;;;;;;;1.67;1.43;;;3.70;99.90;;;;;;5077287;28;20663;-77
2020/12/25 12:53:58;;;;;;;1.87;1.30;;;3.70;99.90;;;;;;5076656;28;20189;-77
2020/12/25 12:56:24;;;;;;;1.63;0.97;;;3.80;99.90;;;;;;5075647;28;20201;-76